createdAt,value
2017-02-28T00:04:42.547Z,8.3
2017-02-28T00:14:56.989Z,8.3
2017-02-28T00:25:10.521Z,8
2017-02-28T00:45:36.911Z,7.6
2017-02-28T00:55:50.060Z,7.3
2017-02-28T01:06:03.714Z,7.2
2017-02-28T01:16:18.112Z,7.1
2017-02-28T01:26:32.721Z,6.8
2017-02-28T01:36:46.547Z,6.9
2017-02-28T01:47:00.642Z,6.7
2017-02-28T01:57:15.532Z,6.5
2017-02-28T02:07:29.220Z,6.3
2017-02-28T02:17:42.708Z,6.3
2017-02-28T02:27:57.554Z,6.1
2017-02-28T02:38:10.738Z,5.9
2017-02-28T02:48:24.826Z,5.8
2017-02-28T02:58:39.190Z,5.4
2017-02-28T03:08:54.245Z,5.2
2017-02-28T03:19:08.225Z,5.2
2017-02-28T03:29:22.746Z,5.1
2017-02-28T03:39:37.065Z,5.1
2017-02-28T03:49:50.738Z,4.9
2017-02-28T04:00:03.914Z,5
2017-02-28T04:10:18.823Z,5.1
2017-02-28T04:20:32.015Z,5.2
2017-02-28T04:30:45.106Z,5.1
2017-02-28T04:41:00.160Z,5.3
2017-02-28T04:51:13.815Z,5.2
2017-02-28T05:01:27.977Z,5.5
2017-02-28T05:11:42.940Z,5.8
2017-02-28T05:21:56.610Z,5.7
2017-02-28T05:32:10.925Z,5.5
2017-02-28T05:42:24.341Z,5.7
2017-02-28T05:52:38.828Z,5.7
2017-02-28T06:02:52.940Z,5.8
2017-02-28T06:13:06.709Z,6
2017-02-28T06:23:19.941Z,5.9
2017-02-28T06:33:33.521Z,6.1
2017-02-28T06:43:46.812Z,6
2017-02-28T06:54:00.213Z,6
2017-02-28T07:14:29.674Z,6.1
2017-02-28T07:24:44.186Z,6
2017-02-28T07:45:10.799Z,6.1
2017-02-28T07:55:26.166Z,6.3
2017-02-28T08:05:40.913Z,6.2
2017-02-28T08:15:53.756Z,6.4
2017-02-28T08:36:21.519Z,6.4
2017-02-28T08:46:35.288Z,6.4
2017-02-28T08:56:48.537Z,6.2
2017-02-28T09:07:03.145Z,6.3
2017-02-28T09:17:17.650Z,6.2
2017-02-28T09:27:32.160Z,6.7
2017-02-28T09:37:45.561Z,7.2
2017-02-28T09:47:59.504Z,7.2
2017-02-28T09:58:13.401Z,7.4
2017-02-28T10:08:27.397Z,7.1
2017-02-28T10:18:40.621Z,7.3
2017-02-28T10:28:55.432Z,7.6
2017-02-28T10:39:09.296Z,7.8
2017-02-28T10:59:38.303Z,7.8
2017-02-28T11:09:52.390Z,8.3
2017-02-28T11:20:05.914Z,8.2
2017-02-28T11:30:19.965Z,7.8
2017-02-28T11:40:34.826Z,7.3
2017-02-28T11:50:48.152Z,8.3
2017-02-28T12:01:03.212Z,9.2
2017-02-28T12:11:17.072Z,9.3
2017-02-28T12:21:31.149Z,9.4
2017-02-28T12:31:45.100Z,8.9
2017-02-28T12:41:59.429Z,8.8
2017-02-28T12:52:13.116Z,8.6
2017-02-28T13:02:27.584Z,8.8
2017-02-28T13:12:41.251Z,8.8
2017-02-28T13:22:54.565Z,8.8
2017-02-28T13:33:09.403Z,8.7
2017-02-28T13:43:23.584Z,9.1
2017-02-28T13:53:36.911Z,9.3
2017-02-28T14:03:50.893Z,9.4
2017-02-28T14:14:05.943Z,9.4
2017-02-28T14:24:20.112Z,9.2
2017-02-28T14:34:35.232Z,9.2
2017-02-28T14:44:48.408Z,9
2017-02-28T14:55:03.256Z,8.9
2017-02-28T15:05:18.218Z,8.6
2017-02-28T15:15:32.201Z,8.6
2017-02-28T15:25:45.709Z,8.6
2017-02-28T15:35:59.554Z,8.6
2017-02-28T15:46:13.427Z,8.3
2017-02-28T15:56:27.910Z,7.9
2017-02-28T16:06:43.022Z,7.8
2017-02-28T16:16:56.494Z,7.6
2017-02-28T16:27:11.211Z,6.6
2017-02-28T16:37:26.418Z,6.3
2017-02-28T16:47:39.648Z,6.3
2017-02-28T16:57:53.164Z,6.3
2017-02-28T17:08:06.470Z,6.2
2017-02-28T17:18:21.300Z,5.9
2017-02-28T17:28:35.289Z,3.1
2017-02-28T17:38:49.532Z,2.4
2017-02-28T17:49:03.347Z,1.8
2017-02-28T17:59:17.920Z,1.4
2017-02-28T18:09:31.443Z,1.8
2017-02-28T18:19:45.771Z,1.8
2017-02-28T18:29:59.665Z,1.9
2017-02-28T18:40:14.598Z,2
2017-02-28T18:50:29.189Z,2
2017-02-28T19:00:42.287Z,2.3
2017-02-28T19:10:55.496Z,2.4
2017-02-28T19:21:10.047Z,2.5
2017-02-28T19:31:25.159Z,2.8
2017-02-28T19:41:39.798Z,3
2017-02-28T19:51:54.186Z,3
2017-02-28T20:02:08.677Z,3
2017-02-28T20:12:22.204Z,3
2017-02-28T20:22:36.795Z,3.1
2017-02-28T20:32:51.615Z,3
2017-02-28T20:43:05.596Z,3.2
2017-02-28T20:53:19.674Z,3.3
2017-02-28T21:03:34.307Z,3.3
2017-02-28T21:13:49.082Z,3.3
2017-02-28T21:24:02.152Z,3.3
2017-02-28T21:34:16.679Z,3.2
2017-02-28T21:44:30.395Z,3.1
2017-02-28T21:54:44.987Z,3.2
2017-02-28T22:04:58.481Z,3.5
2017-02-28T22:15:12.070Z,3.5
2017-02-28T22:25:26.912Z,3.6
2017-02-28T22:35:41.745Z,3.5
2017-02-28T22:45:55.108Z,3.3
2017-02-28T22:56:09.238Z,3.2
2017-02-28T23:06:24.113Z,3.1
2017-02-28T23:16:38.339Z,3.1
2017-02-28T23:26:51.530Z,3.2
2017-02-28T23:37:06.169Z,3.1
2017-02-28T23:47:20.715Z,2.9
2017-02-28T23:57:33.871Z,2.7
